sensor_id;sensor_type;location;lat;lon;timestamp;P1;durP1;ratioP1;P2;durP2;ratioP2
19675;SDS011;39539;52.202;9.876;2023-05-14T00:00:44;16.02;;;14.95;;
19675;SDS011;39539;52.202;9.876;2023-05-14T00:03:11;16.98;;;15.77;;
19675;SDS011;39539;52.202;9.876;2023-05-14T00:05:36;13.90;;;12.93;;
19675;SDS011;39539;52.202;9.876;2023-05-14T00:08:02;13.30;;;12.23;;
19675;SDS011;39539;52.202;9.876;2023-05-14T00:10:27;14.63;;;13.63;;
19675;SDS011;39539;52.202;9.876;2023-05-14T00:12:52;13.65;;;12.57;;
19675;SDS011;39539;52.202;9.876;2023-05-14T00:15:18;21.95;;;20.25;;
19675;SDS011;39539;52.202;9.876;2023-05-14T00:17:43;28.35;;;25.75;;
19675;SDS011;39539;52.202;9.876;2023-05-14T00:20:09;21.13;;;19.33;;
19675;SDS011;39539;52.202;9.876;2023-05-14T00:22:36;17.15;;;15.98;;
19675;SDS011;39539;52.202;9.876;2023-05-14T00:25:02;14.13;;;13.13;;
19675;SDS011;39539;52.202;9.876;2023-05-14T00:27:27;14.85;;;13.85;;
19675;SDS011;39539;52.202;9.876;2023-05-14T00:29:53;12.65;;;11.75;;
19675;SDS011;39539;52.202;9.876;2023-05-14T00:32:18;15.90;;;14.75;;
19675;SDS011;39539;52.202;9.876;2023-05-14T00:34:44;16.88;;;15.68;;
19675;SDS011;39539;52.202;9.876;2023-05-14T00:37:09;20.73;;;19.23;;
19675;SDS011;39539;52.202;9.876;2023-05-14T00:39:34;20.63;;;19.13;;
19675;SDS011;39539;52.202;9.876;2023-05-14T00:42:00;17.27;;;16.08;;
19675;SDS011;39539;52.202;9.876;2023-05-14T00:44:25;17.35;;;16.02;;
19675;SDS011;39539;52.202;9.876;2023-05-14T00:46:51;14.45;;;13.18;;
19675;SDS011;39539;52.202;9.876;2023-05-14T00:49:17;15.02;;;14.02;;
19675;SDS011;39539;52.202;9.876;2023-05-14T00:51:42;15.52;;;14.10;;
19675;SDS011;39539;52.202;9.876;2023-05-14T00:54:10;13.80;;;12.90;;
19675;SDS011;39539;52.202;9.876;2023-05-14T00:56:38;12.45;;;11.63;;
19675;SDS011;39539;52.202;9.876;2023-05-14T00:59:03;13.55;;;12.70;;
19675;SDS011;39539;52.202;9.876;2023-05-14T01:01:28;14.02;;;13.13;;
19675;SDS011;39539;52.202;9.876;2023-05-14T01:03:56;13.82;;;12.73;;
19675;SDS011;39539;52.202;9.876;2023-05-14T01:06:28;13.48;;;12.68;;
19675;SDS011;39539;52.202;9.876;2023-05-14T01:09:24;13.90;;;13.05;;
19675;SDS011;39539;52.202;9.876;2023-05-14T01:11:59;12.07;;;11.38;;
19675;SDS011;39539;52.202;9.876;2023-05-14T01:14:33;12.43;;;11.63;;
19675;SDS011;39539;52.202;9.876;2023-05-14T01:17:06;12.18;;;11.38;;
19675;SDS011;39539;52.202;9.876;2023-05-14T01:19:41;13.18;;;12.27;;
19675;SDS011;39539;52.202;9.876;2023-05-14T01:22:08;11.93;;;11.23;;
19675;SDS011;39539;52.202;9.876;2023-05-14T01:24:34;13.23;;;12.23;;
19675;SDS011;39539;52.202;9.876;2023-05-14T01:27:11;13.48;;;12.48;;
19675;SDS011;39539;52.202;9.876;2023-05-14T01:32:27;13.65;;;12.75;;
19675;SDS011;39539;52.202;9.876;2023-05-14T01:34:53;13.73;;;12.77;;
19675;SDS011;39539;52.202;9.876;2023-05-14T01:37:21;12.82;;;11.93;;
19675;SDS011;39539;52.202;9.876;2023-05-14T01:39:46;12.57;;;11.63;;
19675;SDS011;39539;52.202;9.876;2023-05-14T01:42:14;12.10;;;11.35;;
19675;SDS011;39539;52.202;9.876;2023-05-14T01:44:40;12.13;;;11.32;;
19675;SDS011;39539;52.202;9.876;2023-05-14T01:47:06;11.93;;;11.18;;
19675;SDS011;39539;52.202;9.876;2023-05-14T01:49:31;12.07;;;11.23;;
19675;SDS011;39539;52.202;9.876;2023-05-14T01:51:56;11.20;;;10.45;;
19675;SDS011;39539;52.202;9.876;2023-05-14T01:54:22;12.43;;;11.68;;
19675;SDS011;39539;52.202;9.876;2023-05-14T01:56:47;12.35;;;11.55;;
19675;SDS011;39539;52.202;9.876;2023-05-14T01:59:12;13.87;;;12.97;;
19675;SDS011;39539;52.202;9.876;2023-05-14T02:01:38;13.30;;;12.50;;
19675;SDS011;39539;52.202;9.876;2023-05-14T02:04:03;12.68;;;11.77;;
19675;SDS011;39539;52.202;9.876;2023-05-14T02:06:28;13.68;;;12.57;;
19675;SDS011;39539;52.202;9.876;2023-05-14T02:08:55;12.85;;;12.05;;
19675;SDS011;39539;52.202;9.876;2023-05-14T02:11:20;13.70;;;12.73;;
19675;SDS011;39539;52.202;9.876;2023-05-14T02:13:46;13.85;;;12.85;;
19675;SDS011;39539;52.202;9.876;2023-05-14T02:16:11;13.23;;;12.38;;
19675;SDS011;39539;52.202;9.876;2023-05-14T02:18:36;13.57;;;12.68;;
19675;SDS011;39539;52.202;9.876;2023-05-14T02:21:02;12.80;;;12.00;;
19675;SDS011;39539;52.202;9.876;2023-05-14T02:23:27;13.00;;;12.00;;
19675;SDS011;39539;52.202;9.876;2023-05-14T02:25:52;12.88;;;11.88;;
19675;SDS011;39539;52.202;9.876;2023-05-14T02:28:18;14.48;;;13.27;;
19675;SDS011;39539;52.202;9.876;2023-05-14T02:30:45;13.15;;;12.38;;
19675;SDS011;39539;52.202;9.876;2023-05-14T02:33:10;13.82;;;12.85;;
19675;SDS011;39539;52.202;9.876;2023-05-14T02:35:35;13.95;;;12.85;;
19675;SDS011;39539;52.202;9.876;2023-05-14T02:38:01;13.18;;;12.27;;
19675;SDS011;39539;52.202;9.876;2023-05-14T02:40:26;12.93;;;12.13;;
19675;SDS011;39539;52.202;9.876;2023-05-14T02:42:52;13.00;;;12.20;;
19675;SDS011;39539;52.202;9.876;2023-05-14T02:45:17;12.77;;;11.85;;
19675;SDS011;39539;52.202;9.876;2023-05-14T02:47:42;13.55;;;12.75;;
19675;SDS011;39539;52.202;9.876;2023-05-14T02:50:08;12.90;;;12.00;;
19675;SDS011;39539;52.202;9.876;2023-05-14T02:52:33;11.50;;;10.77;;
19675;SDS011;39539;52.202;9.876;2023-05-14T02:54:59;12.77;;;11.77;;
19675;SDS011;39539;52.202;9.876;2023-05-14T02:57:24;11.52;;;10.80;;
19675;SDS011;39539;52.202;9.876;2023-05-14T02:59:50;12.70;;;11.70;;
19675;SDS011;39539;52.202;9.876;2023-05-14T03:02:15;13.32;;;12.32;;
19675;SDS011;39539;52.202;9.876;2023-05-14T03:04:41;13.40;;;12.40;;
19675;SDS011;39539;52.202;9.876;2023-05-14T03:07:06;13.98;;;13.07;;
19675;SDS011;39539;52.202;9.876;2023-05-14T03:09:31;13.77;;;12.98;;
19675;SDS011;39539;52.202;9.876;2023-05-14T03:11:57;12.63;;;11.82;;
19675;SDS011;39539;52.202;9.876;2023-05-14T03:14:22;12.30;;;11.50;;
19675;SDS011;39539;52.202;9.876;2023-05-14T03:16:47;11.75;;;11.05;;
19675;SDS011;39539;52.202;9.876;2023-05-14T03:19:13;12.95;;;12.13;;
19675;SDS011;39539;52.202;9.876;2023-05-14T03:21:38;13.02;;;12.15;;
19675;SDS011;39539;52.202;9.876;2023-05-14T03:24:03;12.73;;;11.77;;
19675;SDS011;39539;52.202;9.876;2023-05-14T03:26:29;12.30;;;11.52;;
19675;SDS011;39539;52.202;9.876;2023-05-14T03:28:54;12.93;;;12.13;;
19675;SDS011;39539;52.202;9.876;2023-05-14T03:31:20;13.20;;;12.43;;
19675;SDS011;39539;52.202;9.876;2023-05-14T03:33:46;13.00;;;12.20;;
19675;SDS011;39539;52.202;9.876;2023-05-14T03:36:11;13.95;;;12.93;;
19675;SDS011;39539;52.202;9.876;2023-05-14T03:38:37;12.98;;;12.05;;
19675;SDS011;39539;52.202;9.876;2023-05-14T03:41:02;13.32;;;12.35;;
19675;SDS011;39539;52.202;9.876;2023-05-14T03:43:27;11.80;;;11.10;;
19675;SDS011;39539;52.202;9.876;2023-05-14T03:45:53;12.98;;;11.95;;
19675;SDS011;39539;52.202;9.876;2023-05-14T03:48:18;11.80;;;11.10;;
19675;SDS011;39539;52.202;9.876;2023-05-14T03:50:44;12.48;;;11.68;;
19675;SDS011;39539;52.202;9.876;2023-05-14T03:53:10;12.25;;;11.48;;
19675;SDS011;39539;52.202;9.876;2023-05-14T03:55:35;12.77;;;11.82;;
19675;SDS011;39539;52.202;9.876;2023-05-14T03:58:01;11.85;;;11.15;;
19675;SDS011;39539;52.202;9.876;2023-05-14T04:00:26;13.00;;;12.15;;
19675;SDS011;39539;52.202;9.876;2023-05-14T04:02:52;12.38;;;11.57;;
19675;SDS011;39539;52.202;9.876;2023-05-14T04:05:17;12.07;;;11.35;;
19675;SDS011;39539;52.202;9.876;2023-05-14T04:07:43;12.07;;;11.27;;
19675;SDS011;39539;52.202;9.876;2023-05-14T04:10:09;11.40;;;10.60;;
19675;SDS011;39539;52.202;9.876;2023-05-14T04:12:35;10.55;;;9.85;;
19675;SDS011;39539;52.202;9.876;2023-05-14T04:15:00;11.00;;;10.30;;
19675;SDS011;39539;52.202;9.876;2023-05-14T04:17:25;10.43;;;9.82;;
19675;SDS011;39539;52.202;9.876;2023-05-14T04:19:51;11.35;;;10.65;;
19675;SDS011;39539;52.202;9.876;2023-05-14T04:22:16;11.35;;;10.65;;
19675;SDS011;39539;52.202;9.876;2023-05-14T04:24:41;11.45;;;10.85;;
19675;SDS011;39539;52.202;9.876;2023-05-14T04:27:07;12.45;;;11.65;;
19675;SDS011;39539;52.202;9.876;2023-05-14T04:29:32;12.00;;;11.00;;
19675;SDS011;39539;52.202;9.876;2023-05-14T04:31:57;12.48;;;11.57;;
19675;SDS011;39539;52.202;9.876;2023-05-14T04:34:23;11.13;;;10.43;;
19675;SDS011;39539;52.202;9.876;2023-05-14T04:36:48;10.80;;;10.15;;
19675;SDS011;39539;52.202;9.876;2023-05-14T04:39:13;11.35;;;10.65;;
19675;SDS011;39539;52.202;9.876;2023-05-14T04:41:39;11.38;;;10.68;;
19675;SDS011;39539;52.202;9.876;2023-05-14T04:44:04;11.57;;;10.88;;
19675;SDS011;39539;52.202;9.876;2023-05-14T04:46:30;11.30;;;10.55;;
19675;SDS011;39539;52.202;9.876;2023-05-14T04:48:55;11.93;;;11.23;;
19675;SDS011;39539;52.202;9.876;2023-05-14T04:51:21;11.98;;;11.27;;
19675;SDS011;39539;52.202;9.876;2023-05-14T04:53:46;12.60;;;11.82;;
19675;SDS011;39539;52.202;9.876;2023-05-14T04:56:12;11.75;;;11.05;;
19675;SDS011;39539;52.202;9.876;2023-05-14T04:58:37;11.82;;;11.02;;
19675;SDS011;39539;52.202;9.876;2023-05-14T05:01:03;11.95;;;11.15;;
19675;SDS011;39539;52.202;9.876;2023-05-14T05:03:30;11.40;;;10.60;;
19675;SDS011;39539;52.202;9.876;2023-05-14T05:05:56;11.20;;;10.60;;
19675;SDS011;39539;52.202;9.876;2023-05-14T05:08:23;10.95;;;10.15;;
19675;SDS011;39539;52.202;9.876;2023-05-14T05:10:48;11.35;;;10.65;;
19675;SDS011;39539;52.202;9.876;2023-05-14T05:13:13;11.15;;;10.45;;
19675;SDS011;39539;52.202;9.876;2023-05-14T05:15:40;11.10;;;10.38;;
19675;SDS011;39539;52.202;9.876;2023-05-14T05:18:06;10.60;;;9.80;;
19675;SDS011;39539;52.202;9.876;2023-05-14T05:20:32;11.45;;;10.65;;
19675;SDS011;39539;52.202;9.876;2023-05-14T05:22:57;10.75;;;10.05;;
19675;SDS011;39539;52.202;9.876;2023-05-14T05:25:23;10.50;;;9.85;;
19675;SDS011;39539;52.202;9.876;2023-05-14T05:27:48;10.20;;;9.57;;
19675;SDS011;39539;52.202;9.876;2023-05-14T05:30:14;9.65;;;8.95;;
19675;SDS011;39539;52.202;9.876;2023-05-14T05:32:40;10.23;;;9.55;;
19675;SDS011;39539;52.202;9.876;2023-05-14T05:35:06;9.82;;;9.13;;
19675;SDS011;39539;52.202;9.876;2023-05-14T05:37:32;9.60;;;9.00;;
19675;SDS011;39539;52.202;9.876;2023-05-14T05:39:58;9.70;;;9.10;;
19675;SDS011;39539;52.202;9.876;2023-05-14T05:42:23;10.13;;;9.43;;
19675;SDS011;39539;52.202;9.876;2023-05-14T05:44:50;11.07;;;10.20;;
19675;SDS011;39539;52.202;9.876;2023-05-14T05:47:15;11.60;;;10.80;;
19675;SDS011;39539;52.202;9.876;2023-05-14T05:49:41;11.35;;;10.65;;
19675;SDS011;39539;52.202;9.876;2023-05-14T05:52:06;11.05;;;10.25;;
19675;SDS011;39539;52.202;9.876;2023-05-14T05:54:31;10.65;;;9.95;;
19675;SDS011;39539;52.202;9.876;2023-05-14T05:56:57;11.43;;;10.38;;
19675;SDS011;39539;52.202;9.876;2023-05-14T05:59:23;10.27;;;9.68;;
19675;SDS011;39539;52.202;9.876;2023-05-14T06:01:48;10.00;;;9.40;;
19675;SDS011;39539;52.202;9.876;2023-05-14T06:04:14;10.27;;;9.65;;
19675;SDS011;39539;52.202;9.876;2023-05-14T06:06:39;9.65;;;8.95;;
19675;SDS011;39539;52.202;9.876;2023-05-14T06:09:05;8.77;;;8.18;;
19675;SDS011;39539;52.202;9.876;2023-05-14T06:11:31;8.50;;;7.90;;
19675;SDS011;39539;52.202;9.876;2023-05-14T06:13:56;8.57;;;8.07;;
19675;SDS011;39539;52.202;9.876;2023-05-14T06:16:22;7.57;;;7.07;;
19675;SDS011;39539;52.202;9.876;2023-05-14T06:18:47;7.78;;;7.25;;
19675;SDS011;39539;52.202;9.876;2023-05-14T06:21:13;7.57;;;7.03;;
19675;SDS011;39539;52.202;9.876;2023-05-14T06:23:38;7.68;;;7.18;;
19675;SDS011;39539;52.202;9.876;2023-05-14T06:26:04;7.07;;;6.68;;
19675;SDS011;39539;52.202;9.876;2023-05-14T06:28:29;7.50;;;6.90;;
19675;SDS011;39539;52.202;9.876;2023-05-14T06:30:56;7.25;;;6.85;;
19675;SDS011;39539;52.202;9.876;2023-05-14T06:33:21;7.03;;;6.63;;
19675;SDS011;39539;52.202;9.876;2023-05-14T06:35:53;6.38;;;5.80;;
19675;SDS011;39539;52.202;9.876;2023-05-14T06:38:19;6.80;;;6.20;;
19675;SDS011;39539;52.202;9.876;2023-05-14T06:40:44;5.72;;;5.32;;
19675;SDS011;39539;52.202;9.876;2023-05-14T06:43:10;5.88;;;5.47;;
19675;SDS011;39539;52.202;9.876;2023-05-14T06:45:35;5.47;;;5.00;;
19675;SDS011;39539;52.202;9.876;2023-05-14T06:48:01;6.05;;;5.45;;
19675;SDS011;39539;52.202;9.876;2023-05-14T06:50:26;5.50;;;5.10;;
19675;SDS011;39539;52.202;9.876;2023-05-14T06:52:53;5.82;;;5.32;;
19675;SDS011;39539;52.202;9.876;2023-05-14T06:55:18;6.25;;;5.75;;
19675;SDS011;39539;52.202;9.876;2023-05-14T06:57:44;5.68;;;5.18;;
19675;SDS011;39539;52.202;9.876;2023-05-14T07:00:10;6.18;;;5.70;;
19675;SDS011;39539;52.202;9.876;2023-05-14T07:02:36;6.10;;;5.72;;
19675;SDS011;39539;52.202;9.876;2023-05-14T07:05:02;6.20;;;5.80;;
19675;SDS011;39539;52.202;9.876;2023-05-14T07:07:27;5.93;;;5.63;;
19675;SDS011;39539;52.202;9.876;2023-05-14T07:09:52;5.88;;;5.38;;
19675;SDS011;39539;52.202;9.876;2023-05-14T07:12:18;5.95;;;5.47;;
19675;SDS011;39539;52.202;9.876;2023-05-14T07:14:43;5.50;;;5.00;;
19675;SDS011;39539;52.202;9.876;2023-05-14T07:17:08;5.68;;;5.25;;
19675;SDS011;39539;52.202;9.876;2023-05-14T07:19:34;5.72;;;5.32;;
19675;SDS011;39539;52.202;9.876;2023-05-14T07:21:59;5.88;;;5.38;;
19675;SDS011;39539;52.202;9.876;2023-05-14T07:24:25;5.93;;;5.25;;
19675;SDS011;39539;52.202;9.876;2023-05-14T07:26:50;5.78;;;5.30;;
19675;SDS011;39539;52.202;9.876;2023-05-14T07:29:15;5.55;;;4.82;;
19675;SDS011;39539;52.202;9.876;2023-05-14T07:31:41;5.38;;;4.93;;
19675;SDS011;39539;52.202;9.876;2023-05-14T07:34:06;5.75;;;5.20;;
19675;SDS011;39539;52.202;9.876;2023-05-14T07:36:32;5.20;;;4.80;;
19675;SDS011;39539;52.202;9.876;2023-05-14T07:38:58;5.78;;;5.30;;
19675;SDS011;39539;52.202;9.876;2023-05-14T07:41:23;5.22;;;4.82;;
19675;SDS011;39539;52.202;9.876;2023-05-14T07:43:49;5.80;;;5.30;;
19675;SDS011;39539;52.202;9.876;2023-05-14T07:46:14;5.43;;;5.03;;
19675;SDS011;39539;52.202;9.876;2023-05-14T07:48:40;5.70;;;5.20;;
19675;SDS011;39539;52.202;9.876;2023-05-14T07:51:05;5.88;;;5.47;;
19675;SDS011;39539;52.202;9.876;2023-05-14T07:53:31;6.57;;;5.97;;
19675;SDS011;39539;52.202;9.876;2023-05-14T07:55:56;6.35;;;5.90;;
19675;SDS011;39539;52.202;9.876;2023-05-14T07:58:22;5.88;;;5.38;;
19675;SDS011;39539;52.202;9.876;2023-05-14T08:00:47;6.85;;;6.20;;
19675;SDS011;39539;52.202;9.876;2023-05-14T08:03:13;6.75;;;6.18;;
19675;SDS011;39539;52.202;9.876;2023-05-14T08:05:38;6.53;;;6.03;;
19675;SDS011;39539;52.202;9.876;2023-05-14T08:08:03;5.85;;;5.28;;
19675;SDS011;39539;52.202;9.876;2023-05-14T08:10:29;6.28;;;5.20;;
19675;SDS011;39539;52.202;9.876;2023-05-14T08:12:54;7.20;;;5.18;;
19675;SDS011;39539;52.202;9.876;2023-05-14T08:15:19;5.30;;;5.00;;
19675;SDS011;39539;52.202;9.876;2023-05-14T08:17:45;5.28;;;4.88;;
19675;SDS011;39539;52.202;9.876;2023-05-14T08:20:10;5.65;;;5.25;;
19675;SDS011;39539;52.202;9.876;2023-05-14T08:22:36;5.40;;;4.90;;
19675;SDS011;39539;52.202;9.876;2023-05-14T08:25:02;4.93;;;4.63;;
19675;SDS011;39539;52.202;9.876;2023-05-14T08:27:27;5.32;;;4.82;;
19675;SDS011;39539;52.202;9.876;2023-05-14T08:29:53;5.63;;;5.22;;
19675;SDS011;39539;52.202;9.876;2023-05-14T08:32:18;5.03;;;4.63;;
19675;SDS011;39539;52.202;9.876;2023-05-14T08:34:43;5.97;;;5.43;;
19675;SDS011;39539;52.202;9.876;2023-05-14T08:37:09;5.55;;;5.05;;
19675;SDS011;39539;52.202;9.876;2023-05-14T08:39:34;4.93;;;4.57;;
19675;SDS011;39539;52.202;9.876;2023-05-14T08:42:00;4.72;;;4.20;;
19675;SDS011;39539;52.202;9.876;2023-05-14T08:44:37;4.47;;;4.18;;
19675;SDS011;39539;52.202;9.876;2023-05-14T08:47:05;4.95;;;4.55;;
19675;SDS011;39539;52.202;9.876;2023-05-14T08:49:40;3.80;;;3.60;;
19675;SDS011;39539;52.202;9.876;2023-05-14T08:52:08;5.47;;;4.70;;
19675;SDS011;39539;52.202;9.876;2023-05-14T08:54:34;4.20;;;3.90;;
19675;SDS011;39539;52.202;9.876;2023-05-14T08:56:59;3.50;;;3.30;;
19675;SDS011;39539;52.202;9.876;2023-05-14T08:59:25;3.00;;;2.80;;
19675;SDS011;39539;52.202;9.876;2023-05-14T09:01:51;3.30;;;3.00;;
19675;SDS011;39539;52.202;9.876;2023-05-14T09:04:18;3.17;;;2.88;;
19675;SDS011;39539;52.202;9.876;2023-05-14T09:06:48;3.20;;;2.90;;
19675;SDS011;39539;52.202;9.876;2023-05-14T09:09:14;3.28;;;2.40;;
19675;SDS011;39539;52.202;9.876;2023-05-14T09:11:40;2.67;;;2.47;;
19675;SDS011;39539;52.202;9.876;2023-05-14T09:14:06;2.92;;;2.72;;
19675;SDS011;39539;52.202;9.876;2023-05-14T09:16:31;2.97;;;2.75;;
19675;SDS011;39539;52.202;9.876;2023-05-14T09:18:57;3.15;;;2.55;;
19675;SDS011;39539;52.202;9.876;2023-05-14T09:21:22;2.80;;;2.60;;
19675;SDS011;39539;52.202;9.876;2023-05-14T09:23:48;2.78;;;2.58;;
19675;SDS011;39539;52.202;9.876;2023-05-14T09:26:20;4.30;;;3.00;;
19675;SDS011;39539;52.202;9.876;2023-05-14T09:28:51;2.70;;;2.50;;
19675;SDS011;39539;52.202;9.876;2023-05-14T09:31:17;3.60;;;2.70;;
19675;SDS011;39539;52.202;9.876;2023-05-14T09:33:43;3.00;;;2.80;;
19675;SDS011;39539;52.202;9.876;2023-05-14T09:36:15;2.92;;;2.78;;
19675;SDS011;39539;52.202;9.876;2023-05-14T09:38:41;2.90;;;2.70;;
19675;SDS011;39539;52.202;9.876;2023-05-14T09:41:06;3.78;;;2.95;;
19675;SDS011;39539;52.202;9.876;2023-05-14T09:43:31;3.53;;;3.33;;
19675;SDS011;39539;52.202;9.876;2023-05-14T09:45:57;3.60;;;3.30;;
19675;SDS011;39539;52.202;9.876;2023-05-14T09:48:22;3.45;;;3.15;;
19675;SDS011;39539;52.202;9.876;2023-05-14T09:50:48;3.20;;;3.00;;
19675;SDS011;39539;52.202;9.876;2023-05-14T09:53:13;3.75;;;3.35;;
19675;SDS011;39539;52.202;9.876;2023-05-14T09:55:39;3.03;;;2.83;;
19675;SDS011;39539;52.202;9.876;2023-05-14T09:58:06;3.60;;;3.30;;
19675;SDS011;39539;52.202;9.876;2023-05-14T10:00:31;3.72;;;3.40;;
19675;SDS011;39539;52.202;9.876;2023-05-14T10:02:58;3.90;;;3.60;;
19675;SDS011;39539;52.202;9.876;2023-05-14T10:05:26;3.53;;;3.30;;
19675;SDS011;39539;52.202;9.876;2023-05-14T10:07:54;4.35;;;3.83;;
19675;SDS011;39539;52.202;9.876;2023-05-14T10:10:23;3.42;;;3.22;;
19675;SDS011;39539;52.202;9.876;2023-05-14T10:12:56;3.88;;;3.58;;
19675;SDS011;39539;52.202;9.876;2023-05-14T10:15:23;5.00;;;4.30;;
19675;SDS011;39539;52.202;9.876;2023-05-14T10:17:58;4.30;;;3.95;;
19675;SDS011;39539;52.202;9.876;2023-05-14T10:20:27;4.07;;;3.78;;
19675;SDS011;39539;52.202;9.876;2023-05-14T10:22:53;3.90;;;3.60;;
19675;SDS011;39539;52.202;9.876;2023-05-14T10:25:18;3.90;;;3.50;;
19675;SDS011;39539;52.202;9.876;2023-05-14T10:27:45;3.92;;;3.63;;
19675;SDS011;39539;52.202;9.876;2023-05-14T10:30:10;3.85;;;3.55;;
19675;SDS011;39539;52.202;9.876;2023-05-14T10:32:36;4.13;;;3.70;;
19675;SDS011;39539;52.202;9.876;2023-05-14T10:35:13;3.95;;;3.65;;
19675;SDS011;39539;52.202;9.876;2023-05-14T10:37:44;4.97;;;4.18;;
19675;SDS011;39539;52.202;9.876;2023-05-14T10:40:11;5.22;;;3.88;;
19675;SDS011;39539;52.202;9.876;2023-05-14T10:42:37;4.70;;;4.30;;
19675;SDS011;39539;52.202;9.876;2023-05-14T10:45:08;5.13;;;4.72;;
19675;SDS011;39539;52.202;9.876;2023-05-14T10:47:38;4.63;;;4.15;;
19675;SDS011;39539;52.202;9.876;2023-05-14T10:50:05;4.32;;;4.03;;
19675;SDS011;39539;52.202;9.876;2023-05-14T10:52:32;4.50;;;4.20;;
19675;SDS011;39539;52.202;9.876;2023-05-14T10:54:59;4.82;;;4.35;;
19675;SDS011;39539;52.202;9.876;2023-05-14T10:57:27;4.35;;;4.05;;
19675;SDS011;39539;52.202;9.876;2023-05-14T10:59:55;4.00;;;3.70;;
19675;SDS011;39539;52.202;9.876;2023-05-14T11:02:25;4.85;;;4.45;;
19675;SDS011;39539;52.202;9.876;2023-05-14T11:05:02;4.20;;;3.80;;
19675;SDS011;39539;52.202;9.876;2023-05-14T11:07:31;4.45;;;4.15;;
19675;SDS011;39539;52.202;9.876;2023-05-14T11:09:59;4.22;;;3.92;;
19675;SDS011;39539;52.202;9.876;2023-05-14T11:12:26;4.55;;;4.20;;
19675;SDS011;39539;52.202;9.876;2023-05-14T11:14:52;4.53;;;4.13;;
19675;SDS011;39539;52.202;9.876;2023-05-14T11:17:17;4.13;;;3.83;;
19675;SDS011;39539;52.202;9.876;2023-05-14T11:19:43;4.75;;;4.30;;
19675;SDS011;39539;52.202;9.876;2023-05-14T11:22:10;4.13;;;3.83;;
19675;SDS011;39539;52.202;9.876;2023-05-14T11:24:37;4.55;;;4.20;;
19675;SDS011;39539;52.202;9.876;2023-05-14T11:27:03;4.60;;;4.30;;
19675;SDS011;39539;52.202;9.876;2023-05-14T11:29:29;4.70;;;4.40;;
19675;SDS011;39539;52.202;9.876;2023-05-14T11:31:54;4.53;;;4.10;;
19675;SDS011;39539;52.202;9.876;2023-05-14T11:34:20;5.00;;;4.18;;
19675;SDS011;39539;52.202;9.876;2023-05-14T11:36:45;4.75;;;4.35;;
19675;SDS011;39539;52.202;9.876;2023-05-14T11:39:16;5.00;;;4.60;;
19675;SDS011;39539;52.202;9.876;2023-05-14T11:41:43;4.50;;;4.10;;
19675;SDS011;39539;52.202;9.876;2023-05-14T11:44:09;4.03;;;3.72;;
19675;SDS011;39539;52.202;9.876;2023-05-14T11:46:35;4.50;;;4.20;;
19675;SDS011;39539;52.202;9.876;2023-05-14T11:49:02;4.53;;;4.22;;
19675;SDS011;39539;52.202;9.876;2023-05-14T11:51:28;4.22;;;3.92;;
19675;SDS011;39539;52.202;9.876;2023-05-14T11:53:54;4.40;;;4.10;;
19675;SDS011;39539;52.202;9.876;2023-05-14T11:56:20;4.88;;;4.47;;
19675;SDS011;39539;52.202;9.876;2023-05-14T11:58:47;4.07;;;3.78;;
19675;SDS011;39539;52.202;9.876;2023-05-14T12:01:13;3.75;;;3.40;;
19675;SDS011;39539;52.202;9.876;2023-05-14T12:03:39;4.10;;;3.80;;
19675;SDS011;39539;52.202;9.876;2023-05-14T12:06:05;5.03;;;4.15;;
19675;SDS011;39539;52.202;9.876;2023-05-14T12:08:32;4.32;;;3.92;;
19675;SDS011;39539;52.202;9.876;2023-05-14T12:10:59;4.38;;;4.03;;
19675;SDS011;39539;52.202;9.876;2023-05-14T12:13:28;3.63;;;3.42;;
19675;SDS011;39539;52.202;9.876;2023-05-14T12:15:56;3.97;;;3.67;;
19675;SDS011;39539;52.202;9.876;2023-05-14T12:18:26;3.97;;;3.70;;
19675;SDS011;39539;52.202;9.876;2023-05-14T12:20:52;4.18;;;3.78;;
19675;SDS011;39539;52.202;9.876;2023-05-14T12:23:25;3.85;;;3.53;;
19675;SDS011;39539;52.202;9.876;2023-05-14T12:25:51;4.20;;;3.90;;
19675;SDS011;39539;52.202;9.876;2023-05-14T12:28:17;4.57;;;4.18;;
19675;SDS011;39539;52.202;9.876;2023-05-14T12:30:46;3.95;;;3.67;;
19675;SDS011;39539;52.202;9.876;2023-05-14T12:33:12;4.75;;;4.15;;
19675;SDS011;39539;52.202;9.876;2023-05-14T12:35:38;3.78;;;3.53;;
19675;SDS011;39539;52.202;9.876;2023-05-14T12:38:05;3.67;;;3.45;;
19675;SDS011;39539;52.202;9.876;2023-05-14T12:40:30;4.20;;;3.90;;
19675;SDS011;39539;52.202;9.876;2023-05-14T12:42:55;6.78;;;3.63;;
19675;SDS011;39539;52.202;9.876;2023-05-14T12:45:21;3.67;;;3.38;;
19675;SDS011;39539;52.202;9.876;2023-05-14T12:47:46;4.25;;;3.90;;
19675;SDS011;39539;52.202;9.876;2023-05-14T12:50:12;3.53;;;3.22;;
19675;SDS011;39539;52.202;9.876;2023-05-14T12:52:37;3.80;;;3.45;;
19675;SDS011;39539;52.202;9.876;2023-05-14T12:55:02;3.60;;;3.28;;
19675;SDS011;39539;52.202;9.876;2023-05-14T12:57:28;4.97;;;3.75;;
19675;SDS011;39539;52.202;9.876;2023-05-14T12:59:54;4.03;;;3.63;;
19675;SDS011;39539;52.202;9.876;2023-05-14T13:02:20;4.10;;;3.80;;
19675;SDS011;39539;52.202;9.876;2023-05-14T13:04:45;4.20;;;3.80;;
19675;SDS011;39539;52.202;9.876;2023-05-14T13:07:11;4.32;;;3.92;;
19675;SDS011;39539;52.202;9.876;2023-05-14T13:09:37;3.88;;;3.67;;
19675;SDS011;39539;52.202;9.876;2023-05-14T13:12:02;4.28;;;3.38;;
19675;SDS011;39539;52.202;9.876;2023-05-14T13:14:28;4.13;;;3.83;;
19675;SDS011;39539;52.202;9.876;2023-05-14T13:16:53;4.22;;;3.75;;
19675;SDS011;39539;52.202;9.876;2023-05-14T13:19:19;4.25;;;3.88;;
19675;SDS011;39539;52.202;9.876;2023-05-14T13:21:44;3.92;;;3.65;;
19675;SDS011;39539;52.202;9.876;2023-05-14T13:24:10;5.60;;;3.90;;
19675;SDS011;39539;52.202;9.876;2023-05-14T13:26:36;4.05;;;3.78;;
19675;SDS011;39539;52.202;9.876;2023-05-14T13:29:01;4.30;;;3.88;;
19675;SDS011;39539;52.202;9.876;2023-05-14T13:31:27;4.05;;;3.75;;
19675;SDS011;39539;52.202;9.876;2023-05-14T13:33:52;4.07;;;3.72;;
19675;SDS011;39539;52.202;9.876;2023-05-14T13:36:17;4.22;;;3.90;;
19675;SDS011;39539;52.202;9.876;2023-05-14T13:38:43;4.50;;;4.20;;
19675;SDS011;39539;52.202;9.876;2023-05-14T13:41:10;4.60;;;4.30;;
19675;SDS011;39539;52.202;9.876;2023-05-14T13:43:35;3.88;;;3.60;;
19675;SDS011;39539;52.202;9.876;2023-05-14T13:46:01;4.28;;;3.80;;
19675;SDS011;39539;52.202;9.876;2023-05-14T13:48:28;4.35;;;4.05;;
19675;SDS011;39539;52.202;9.876;2023-05-14T13:50:54;4.53;;;4.20;;
19675;SDS011;39539;52.202;9.876;2023-05-14T13:53:21;4.82;;;4.40;;
19675;SDS011;39539;52.202;9.876;2023-05-14T13:55:47;4.50;;;4.20;;
19675;SDS011;39539;52.202;9.876;2023-05-14T13:58:13;4.20;;;3.90;;
19675;SDS011;39539;52.202;9.876;2023-05-14T14:00:38;5.53;;;3.70;;
19675;SDS011;39539;52.202;9.876;2023-05-14T14:03:04;5.50;;;5.10;;
19675;SDS011;39539;52.202;9.876;2023-05-14T14:05:29;3.60;;;3.40;;
19675;SDS011;39539;52.202;9.876;2023-05-14T14:07:55;4.45;;;4.15;;
19675;SDS011;39539;52.202;9.876;2023-05-14T14:10:21;2.70;;;2.50;;
19675;SDS011;39539;52.202;9.876;2023-05-14T14:12:47;3.30;;;3.00;;
19675;SDS011;39539;52.202;9.876;2023-05-14T14:15:12;3.33;;;3.03;;
19675;SDS011;39539;52.202;9.876;2023-05-14T14:17:38;3.10;;;2.90;;
19675;SDS011;39539;52.202;9.876;2023-05-14T14:20:06;4.00;;;3.70;;
19675;SDS011;39539;52.202;9.876;2023-05-14T14:22:32;3.83;;;3.50;;
19675;SDS011;39539;52.202;9.876;2023-05-14T14:24:57;3.33;;;3.03;;
19675;SDS011;39539;52.202;9.876;2023-05-14T14:27:23;3.38;;;3.17;;
19675;SDS011;39539;52.202;9.876;2023-05-14T14:29:48;7.43;;;3.22;;
19675;SDS011;39539;52.202;9.876;2023-05-14T14:32:13;3.70;;;3.40;;
19675;SDS011;39539;52.202;9.876;2023-05-14T14:34:39;4.65;;;4.00;;